Time;durP1;ratioP1;P1;durP2;ratioP2;P2;SDS_P1;SDS_P2;PMS_P1;PMS_P2;Temp;Humidity;BMP_temperature;BMP_pressure;BME280_temperature;BME280_humidity;BME280_pressure;Samples;Min_cycle;Max_cycle;Signal;HPM_P1;HPM_P2
2021/06/24 00:01:21;;;;;;;4.70;2.88;;;;;;;16.74;100.00;99154.44;5096392;28;20047;-80
2021/06/24 00:03:48;;;;;;;5.07;2.72;;;;;;;16.79;100.00;99166.44;5092942;28;20047;-80
2021/06/24 00:06:14;;;;;;;7.53;2.95;;;;;;;16.66;100.00;99152.00;5093168;28;20139;-80
2021/06/24 00:08:41;;;;;;;7.53;2.70;;;;;;;16.62;100.00;99140.63;5093005;28;20052;-79
2021/06/24 00:11:10;;;;;;;4.50;2.40;;;;;;;16.73;100.00;99158.25;5093199;28;20087;-80
2021/06/24 00:13:38;;;;;;;8.25;2.45;;;;;;;16.77;100.00;99160.31;5112408;28;20051;-80
2021/06/24 00:16:06;;;;;;;4.30;2.25;;;;;;;16.70;100.00;99153.22;5113077;27;20216;-79
2021/06/24 00:18:34;;;;;;;6.30;2.05;;;;;;;16.76;100.00;99163.31;5082967;28;20074;-80
2021/06/24 00:21:01;;;;;;;3.50;2.33;;;;;;;16.57;100.00;99143.19;5077821;28;20123;-80
2021/06/24 00:23:28;;;;;;;2.78;1.90;;;;;;;16.60;100.00;99140.00;5103486;28;20052;-79
2021/06/24 00:25:55;;;;;;;2.70;2.00;;;;;;;16.63;100.00;99147.78;5092492;28;20048;-80
2021/06/24 00:28:27;;;;;;;4.57;2.78;;;;;;;16.64;100.00;99150.28;5099065;28;20444;-79
2021/06/24 00:30:54;;;;;;;2.40;2.00;;;;;;;16.74;100.00;99163.53;5113297;28;20055;-80
2021/06/24 00:33:21;;;;;;;3.55;2.15;;;;;;;16.66;100.00;99158.31;5108211;28;20040;-79
2021/06/24 00:35:48;;;;;;;5.88;2.53;;;;;;;16.65;100.00;99167.63;5078453;28;20140;-79
2021/06/24 00:38:16;;;;;;;6.60;2.03;;;;;;;16.52;100.00;99171.31;5072256;28;20050;-79
2021/06/24 00:40:44;;;;;;;2.50;1.95;;;;;;;16.53;100.00;99183.97;5093216;28;20052;-79
2021/06/24 00:43:13;;;;;;;2.33;2.00;;;;;;;16.45;100.00;99196.06;5098784;28;20504;-80
2021/06/24 00:45:41;;;;;;;2.70;2.03;;;;;;;16.50;100.00;99181.69;5110855;28;20050;-80
2021/06/24 00:48:10;;;;;;;3.60;2.20;;;;;;;16.55;100.00;99187.31;5112729;28;20093;-80
2021/06/24 00:50:41;;;;;;;5.55;2.00;;;;;;;16.56;100.00;99189.00;5097540;28;20048;-80
2021/06/24 00:53:08;;;;;;;4.13;2.33;;;;;;;16.58;100.00;99208.84;5072075;28;20415;-79
2021/06/24 00:55:41;;;;;;;3.72;2.40;;;;;;;16.51;100.00;99185.25;5092867;28;20036;-79
2021/06/24 00:58:08;;;;;;;4.00;1.95;;;;;;;16.61;100.00;99191.09;5112776;28;20439;-79
2021/06/24 01:00:36;;;;;;;4.90;1.70;;;;;;;16.66;100.00;99198.66;5111730;28;20047;-79
2021/06/24 01:03:05;;;;;;;7.30;2.10;;;;;;;16.58;100.00;99183.31;5112196;28;20134;-79
2021/06/24 01:05:31;;;;;;;3.13;2.10;;;;;;;16.63;100.00;99189.81;5109405;28;20047;-79
2021/06/24 01:07:59;;;;;;;3.97;2.42;;;;;;;16.64;100.00;99171.44;5092099;28;20430;-80
2021/06/24 01:10:27;;;;;;;2.85;1.92;;;;;;;16.67;100.00;99176.47;5091841;28;20055;-80
2021/06/24 01:12:54;;;;;;;3.70;1.73;;;;;;;16.46;100.00;99170.28;5089606;28;20040;-79
2021/06/24 01:15:21;;;;;;;2.17;1.83;;;;;;;16.51;100.00;99188.00;5071259;28;20060;-80
2021/06/24 01:17:48;;;;;;;7.68;2.25;;;;;;;16.51;100.00;99186.09;5102758;28;20048;-80
2021/06/24 01:20:17;;;;;;;5.05;2.25;;;;;;;16.52;100.00;99181.44;5112603;28;20051;-80
2021/06/24 01:22:44;;;;;;;3.40;1.70;;;;;;;16.56;100.00;99191.75;5108769;28;20056;-80
2021/06/24 01:25:13;;;;;;;3.20;2.00;;;;;;;16.38;100.00;99187.03;5091631;28;20054;-80
2021/06/24 01:27:40;;;;;;;7.10;1.70;;;;;;;16.52;100.00;99198.75;5091777;28;20040;-79
2021/06/24 01:30:09;;;;;;;6.50;1.50;;;;;;;16.44;100.00;99197.13;5086764;28;20051;-79
2021/06/24 01:32:36;;;;;;;5.40;1.77;;;;;;;16.30;100.00;99167.25;5071738;28;20067;-80
2021/06/24 01:35:03;;;;;;;3.13;1.90;;;;;;;16.32;100.00;99195.31;5105095;28;20055;-79
2021/06/24 01:37:30;;;;;;;4.93;2.30;;;;;;;16.24;100.00;99174.47;5091653;28;20050;-79
2021/06/24 01:39:57;;;;;;;3.13;1.83;;;;;;;16.18;100.00;99170.69;5105977;28;20120;-79
2021/06/24 01:45:49;;;;;;;7.80;2.22;;;;;;;16.23;100.00;99165.41;5094893;28;20419;-79
2021/06/24 01:48:16;;;;;;;3.72;2.35;;;;;;;16.17;100.00;99144.34;5090791;28;20044;-79
2021/06/24 01:50:43;;;;;;;2.45;2.20;;;;;;;16.37;100.00;99162.56;5105692;28;20406;-79
2021/06/24 01:53:11;;;;;;;2.60;2.10;;;;;;;16.41;100.00;99150.06;5111658;28;20047;-79
2021/06/24 01:55:40;;;;;;;3.25;2.60;;;;;;;16.39;100.00;99166.75;5100857;28;20055;-79
2021/06/24 01:58:08;;;;;;;4.25;2.40;;;;;;;16.35;100.00;99151.81;5091571;28;20056;-79
2021/06/24 02:00:36;;;;;;;3.95;2.30;;;;;;;16.32;100.00;99127.59;5100805;28;20051;-79
2021/06/24 02:03:05;;;;;;;2.15;1.88;;;;;;;16.52;100.00;99149.34;5111381;28;20051;-79
2021/06/24 02:05:32;;;;;;;4.22;2.25;;;;;;;16.45;100.00;99135.72;5109103;28;20054;-79
2021/06/24 02:07:58;;;;;;;3.95;2.38;;;;;;;16.43;100.00;99121.34;5109729;28;20470;-79
2021/06/24 02:10:25;;;;;;;3.20;2.40;;;;;;;16.30;100.00;99121.47;5091412;28;20058;-79
2021/06/24 02:12:52;;;;;;;6.32;2.83;;;;;;;16.34;100.00;99116.38;5110215;28;20054;-79
2021/06/24 02:15:19;;;;;;;6.88;2.88;;;;;;;16.36;100.00;99117.81;5110846;28;20055;-80
2021/06/24 02:17:46;;;;;;;6.03;2.35;;;;;;;16.33;100.00;99114.69;5096884;28;20052;-80
2021/06/24 02:20:17;;;;;;;7.60;2.28;;;;;;;16.36;100.00;99127.97;5091241;28;20388;-79
2021/06/24 02:22:44;;;;;;;3.70;2.40;;;;;;;16.33;100.00;99112.78;5090552;28;20044;-80
2021/06/24 02:25:13;;;;;;;3.00;2.53;;;;;;;16.33;100.00;99115.53;5091087;28;20052;-79
2021/06/24 02:27:40;;;;;;;3.53;2.92;;;;;;;16.48;100.00;99115.19;5103817;28;20460;-79
2021/06/24 02:30:08;;;;;;;3.30;2.63;;;;;;;16.45;100.00;99096.44;5115529;28;20126;-80
2021/06/24 02:32:35;;;;;;;6.05;2.55;;;;;;;16.42;100.00;99124.31;5114058;28;20597;-79
2021/06/24 02:35:04;;;;;;;3.95;2.50;;;;;;;16.24;100.00;99098.53;5115152;28;20044;-78
2021/06/24 02:37:32;;;;;;;3.75;2.60;;;;;;;16.37;100.00;99118.69;5113762;28;20058;-79
2021/06/24 02:39:59;;;;;;;3.13;2.25;;;;;;;16.27;100.00;99089.84;5079804;28;20480;-79
2021/06/24 02:42:26;;;;;;;2.60;2.10;;;;;;;16.31;100.00;99092.97;5074505;28;20075;-79
2021/06/24 02:44:53;;;;;;;2.90;2.50;;;;;;;16.32;100.00;99093.81;5111899;28;20056;-79
2021/06/24 02:47:20;;;;;;;3.88;2.78;;;;;;;16.41;100.00;99093.31;5115269;28;20047;-79
2021/06/24 02:49:47;;;;;;;3.42;2.40;;;;;;;16.44;100.00;99113.97;5114535;28;20054;-79
2021/06/24 02:52:14;;;;;;;5.38;2.80;;;;;;;16.34;100.00;99094.44;5115302;28;20044;-79
2021/06/24 02:54:42;;;;;;;7.93;3.08;;;;;;;16.50;100.00;99104.84;5104478;28;20058;-78
2021/06/24 02:57:09;;;;;;;4.85;2.35;;;;;;;16.22;100.00;99094.31;5115118;28;20058;-79
2021/06/24 02:59:36;;;;;;;3.38;2.45;;;;;;;16.19;100.00;99089.28;5113423;28;20086;-79
2021/06/24 03:02:04;;;;;;;2.50;2.20;;;;;;;16.18;100.00;99085.69;5094248;28;20051;-79
2021/06/24 03:04:31;;;;;;;7.30;3.08;;;;;;;16.34;100.00;99099.94;5094116;28;20059;-79
2021/06/24 03:06:58;;;;;;;6.70;2.70;;;;;;;16.32;100.00;99093.81;5113223;28;20048;-79
2021/06/24 03:09:25;;;;;;;4.35;2.55;;;;;;;16.33;100.00;99090.84;5114610;28;20048;-79
2021/06/24 03:11:53;;;;;;;5.00;2.63;;;;;;;16.21;100.00;99078.91;5094784;28;20078;-79
2021/06/24 03:14:20;;;;;;;4.43;2.85;;;;;;;16.34;100.00;99083.47;5073215;28;20057;-79
2021/06/24 03:16:47;;;;;;;3.97;2.80;;;;;;;16.43;100.00;99076.63;5078885;28;20052;-80
2021/06/24 03:19:14;;;;;;;4.88;2.92;;;;;;;16.51;100.00;99073.56;5114584;28;20313;-79
2021/06/24 03:21:41;;;;;;;3.33;2.63;;;;;;;16.35;100.00;99058.56;5114304;28;20498;-79
2021/06/24 03:24:09;;;;;;;4.53;2.83;;;;;;;16.25;100.00;99050.81;5098350;28;20052;-79
2021/06/24 03:26:36;;;;;;;10.35;3.80;;;;;;;16.17;100.00;99075.78;5094206;28;20060;-79
2021/06/24 03:29:07;;;;;;;4.07;2.55;;;;;;;16.14;100.00;99051.56;5093485;28;20062;-79
2021/06/24 03:31:35;;;;;;;4.32;2.13;;;;;;;16.12;100.00;99070.13;5093856;28;20048;-78
2021/06/24 03:34:02;;;;;;;5.88;2.90;;;;;;;16.04;100.00;99051.22;5097124;28;20048;-79
2021/06/24 03:36:29;;;;;;;4.18;2.58;;;;;;;16.01;100.00;99047.00;5114147;28;20048;-78
2021/06/24 03:38:56;;;;;;;4.72;2.33;;;;;;;16.04;100.00;99060.28;5114092;28;20047;-79
2021/06/24 03:41:25;;;;;;;6.20;2.70;;;;;;;15.96;100.00;99048.75;5112821;28;20055;-78
2021/06/24 03:43:53;;;;;;;5.95;2.70;;;;;;;16.01;100.00;99057.97;5112826;28;20093;-79
2021/06/24 03:46:21;;;;;;;2.58;2.00;;;;;;;16.03;100.00;99047.66;5107322;28;20047;-79
2021/06/24 03:48:48;;;;;;;5.72;2.30;;;;;;;16.02;100.00;99045.97;5113322;28;20139;-79
2021/06/24 03:51:16;;;;;;;2.72;2.30;;;;;;;16.07;100.00;99056.25;5113834;28;20046;-79
2021/06/24 03:53:43;;;;;;;3.10;2.50;;;;;;;16.03;100.00;99060.50;5113277;28;20047;-78
2021/06/24 03:56:10;;;;;;;8.15;2.80;;;;;;;16.02;100.00;99056.94;5113808;28;20058;-78
2021/06/24 03:58:38;;;;;;;8.73;2.88;;;;;;;16.04;100.00;99059.44;5096581;28;20055;-79
2021/06/24 04:01:05;;;;;;;3.22;2.28;;;;;;;16.10;100.00;99051.16;5091995;28;20140;-79
2021/06/24 04:03:33;;;;;;;8.95;2.83;;;;;;;16.19;100.00;99062.69;5089834;28;20085;-79
2021/06/24 04:06:00;;;;;;;3.38;2.40;;;;;;;16.24;100.00;99068.34;5092368;28;20052;-78
2021/06/24 04:08:27;;;;;;;3.35;2.53;;;;;;;16.34;100.00;99051.38;5100076;28;20055;-78
2021/06/24 04:10:54;;;;;;;3.40;2.67;;;;;;;16.23;100.00;99035.66;5112940;28;20044;-79
2021/06/24 04:13:21;;;;;;;4.45;3.50;;;;;;;16.30;100.00;99060.28;5112189;28;20055;-79
2021/06/24 04:15:48;;;;;;;2.88;2.47;;;;;;;16.22;100.00;99058.66;5112948;28;20051;-79
2021/06/24 04:18:14;;;;;;;4.90;3.05;;;;;;;16.39;100.00;99065.25;5085336;28;20053;-78
2021/06/24 04:20:43;;;;;;;6.65;3.00;;;;;;;16.41;100.00;99056.78;5107158;28;20070;-79
2021/06/24 04:23:10;;;;;;;5.15;2.85;;;;;;;16.36;100.00;99048.41;5113319;28;20075;-79
2021/06/24 04:25:39;;;;;;;4.82;3.08;;;;;;;16.38;100.00;99070.97;5112394;28;20050;-78
2021/06/24 04:28:06;;;;;;;6.85;3.20;;;;;;;16.39;100.00;99062.50;5113408;28;20048;-79
2021/06/24 04:30:33;;;;;;;6.82;3.08;;;;;;;16.50;100.00;99071.06;5105009;28;20044;-78
2021/06/24 04:33:00;;;;;;;6.32;3.10;;;;;;;16.42;100.00;99053.00;5090994;28;20059;-78
2021/06/24 04:35:27;;;;;;;6.75;3.50;;;;;;;16.35;100.00;99049.47;5092466;28;20113;-78
2021/06/24 04:37:55;;;;;;;5.35;3.40;;;;;;;16.34;100.00;99056.03;5112481;28;20054;-78
2021/06/24 04:40:22;;;;;;;3.28;2.80;;;;;;;16.61;100.00;99057.44;5113045;28;20044;-79
2021/06/24 04:42:49;;;;;;;4.55;3.50;;;;;;;16.71;100.00;99047.84;5112130;28;20074;-78
2021/06/24 04:45:17;;;;;;;5.30;3.13;;;;;;;16.75;100.00;99051.81;5112631;28;20059;-79
2021/06/24 04:47:44;;;;;;;5.50;3.47;;;;;;;16.77;100.00;99066.13;5111399;28;20051;-78
2021/06/24 04:50:12;;;;;;;6.72;3.60;;;;;;;16.66;100.00;99064.16;5112120;28;20040;-79
2021/06/24 04:52:46;;;;;;;6.05;3.30;;;;;;;16.70;100.00;99060.72;5097561;28;20052;-78
2021/06/24 04:55:28;;;;;;;6.13;3.63;;;;;;;16.73;100.00;99075.91;5112382;28;20055;-78
2021/06/24 04:57:57;;;;;;;3.88;3.10;;;;;;;16.62;100.00;99055.56;5112658;28;20509;-78
2021/06/24 05:00:24;;;;;;;10.35;3.65;;;;;;;16.59;100.00;99058.72;5111941;28;20043;-78
2021/06/24 05:02:51;;;;;;;6.80;3.53;;;;;;;16.67;100.00;99058.44;5112436;28;20549;-79
2021/06/24 05:05:18;;;;;;;5.70;3.92;;;;;;;16.83;100.00;99058.91;5097548;28;20055;-79
2021/06/24 05:07:45;;;;;;;7.13;3.80;;;;;;;16.92;100.00;99063.91;5110315;28;20040;-79
2021/06/24 05:10:15;;;;;;;7.63;4.28;;;;;;;16.95;100.00;99060.69;5091228;28;20475;-79
2021/06/24 05:12:42;;;;;;;5.18;3.42;;;;;;;16.97;100.00;99047.56;5112079;28;20058;-79
2021/06/24 05:15:10;;;;;;;9.25;4.00;;;;;;;17.29;100.00;99066.59;5108672;28;20059;-79
2021/06/24 05:17:38;;;;;;;7.68;3.65;;;;;;;17.31;100.00;99061.75;5091660;28;20048;-79
2021/06/24 05:20:07;;;;;;;4.35;3.10;;;;;;;17.32;99.17;99068.06;5091979;28;20047;-79
2021/06/24 05:22:46;;;;;;;4.97;3.63;;;;;;;17.24;99.15;99071.97;5109740;28;20293;-79
2021/06/24 05:25:18;;;;;;;5.15;3.08;;;;;;;17.12;99.71;99074.66;5088666;28;20127;-78
2021/06/24 05:27:44;;;;;;;5.20;3.30;;;;;;;17.33;99.79;99059.59;5093790;28;20495;-79
2021/06/24 05:30:12;;;;;;;4.55;3.30;;;;;;;17.64;99.11;99062.34;5111883;28;20047;-78
2021/06/24 05:32:45;;;;;;;7.30;3.20;;;;;;;17.80;98.37;99075.44;5111397;28;20047;-79
2021/06/24 05:35:15;;;;;;;6.32;3.78;;;;;;;17.94;97.02;99053.25;5112059;28;20059;-79
2021/06/24 05:37:57;;;;;;;4.65;3.50;;;;;;;18.22;96.60;99055.34;5111875;28;20051;-79
2021/06/24 05:40:27;;;;;;;6.70;3.80;;;;;;;18.32;93.52;99044.59;5071402;28;20557;-78
2021/06/24 05:42:54;;;;;;;4.38;3.65;;;;;;;18.48;92.76;99040.25;5080034;28;20052;-79
2021/06/24 05:45:27;;;;;;;3.88;3.42;;;;;;;19.00;91.97;99050.53;5111678;28;20043;-79
2021/06/24 05:47:54;;;;;;;5.05;3.60;;;;;;;19.10;87.17;99039.75;5112480;28;20469;-78
2021/06/24 05:50:21;;;;;;;4.35;3.95;;;;;;;18.84;90.20;99059.53;5109974;28;20127;-80
2021/06/24 05:52:48;;;;;;;5.13;3.83;;;;;;;18.65;92.95;99053.31;5098564;28;20044;-79
2021/06/24 05:55:14;;;;;;;4.68;3.72;;;;;;;18.91;91.78;99057.50;5101199;28;20052;-80
2021/06/24 05:57:43;;;;;;;3.92;3.30;;;;;;;18.89;89.02;99060.50;5111301;28;20505;-80
2021/06/24 06:00:13;;;;;;;4.05;3.45;;;;;;;18.69;91.56;99063.59;5093794;28;20044;-79
2021/06/24 06:02:40;;;;;;;4.45;3.78;;;;;;;18.51;93.42;99052.72;5095589;28;20048;-79
2021/06/24 06:05:07;;;;;;;5.35;4.00;;;;;;;18.59;90.67;99055.09;5110245;28;20058;-79
2021/06/24 06:07:34;;;;;;;7.57;4.28;;;;;;;18.65;90.56;99065.19;5115994;28;20044;-79
2021/06/24 06:10:01;;;;;;;5.65;3.92;;;;;;;19.19;88.78;99061.38;5103048;28;20051;-79
2021/06/24 06:12:28;;;;;;;6.30;4.20;;;;;;;20.11;82.63;99049.38;5095467;28;20501;-78
2021/06/24 06:14:57;;;;;;;5.30;3.47;;;;;;;20.26;81.66;99056.22;5097269;28;20104;-78
2021/06/24 06:17:23;;;;;;;4.22;2.92;;;;;;;20.04;81.23;99069.91;5116578;28;20055;-79
2021/06/24 06:19:50;;;;;;;4.22;3.30;;;;;;;19.75;80.06;99080.94;5115862;28;20043;-79
2021/06/24 06:22:17;;;;;;;3.25;2.95;;;;;;;19.56;82.69;99063.78;5097894;28;20071;-78
2021/06/24 06:24:44;;;;;;;4.93;2.70;;;;;;;19.51;83.88;99077.47;5095041;28;20113;-78
2021/06/24 06:27:11;;;;;;;5.38;3.25;;;;;;;19.34;85.88;99085.66;5107970;28;20483;-78
2021/06/24 06:29:40;;;;;;;4.15;3.75;;;;;;;19.35;86.73;99082.66;5116110;28;20048;-79
2021/06/24 06:32:09;;;;;;;5.80;3.53;;;;;;;19.53;83.64;99059.59;5108199;28;20039;-79
2021/06/24 06:34:36;;;;;;;3.33;3.00;;;;;;;19.76;83.17;99075.19;5117228;28;20073;-79
2021/06/24 06:37:21;;;;;;;3.92;2.80;;;;;;;19.95;82.23;99070.31;5115374;27;20063;-78
2021/06/24 06:39:48;;;;;;;3.08;2.70;;;;;;;20.08;79.24;99060.91;5115343;28;20048;-79
2021/06/24 06:42:15;;;;;;;5.28;2.30;;;;;;;20.14;79.96;99076.47;5115064;28;20055;-79
2021/06/24 06:44:42;;;;;;;4.90;2.78;;;;;;;20.47;81.93;99085.84;5099769;28;20052;-79
2021/06/24 06:47:13;;;;;;;3.42;2.72;;;;;;;20.32;79.33;99080.91;5094785;28;20505;-79
2021/06/24 06:49:47;;;;;;;3.05;2.50;;;;;;;20.13;80.95;99096.03;5106770;28;20044;-79
2021/06/24 06:52:14;;;;;;;7.40;2.83;;;;;;;19.78;82.79;99083.25;5115164;28;20108;-79
2021/06/24 06:54:41;;;;;;;2.38;2.15;;;;;;;19.60;79.98;99074.06;5110345;28;20047;-79
2021/06/24 06:57:08;;;;;;;4.45;2.20;;;;;;;19.82;80.51;99091.88;5094403;28;20070;-79
2021/06/24 06:59:35;;;;;;;2.63;1.73;;;;;;;19.80;77.31;99086.63;5094369;28;20044;-78
2021/06/24 07:02:02;;;;;;;3.15;2.50;;;;;;;19.96;77.70;99088.56;5114903;28;20108;-79
2021/06/24 07:04:30;;;;;;;2.65;1.92;;;;;;;19.82;77.50;99053.25;5112045;28;20063;-78
2021/06/24 07:06:57;;;;;;;2.65;2.20;;;;;;;20.03;77.44;99063.56;5108854;28;20513;-79
2021/06/24 07:09:24;;;;;;;3.80;2.13;;;;;;;20.29;78.06;99056.56;5114678;28;20054;-79
2021/06/24 07:11:51;;;;;;;5.25;2.35;;;;;;;20.38;75.48;99067.16;5100545;28;20522;-78
2021/06/24 07:14:18;;;;;;;2.92;1.80;;;;;;;20.45;76.94;99057.63;5093876;28;20048;-78
2021/06/24 07:16:45;;;;;;;2.13;1.58;;;;;;;21.06;71.94;99069.84;5099611;28;20449;-78
2021/06/24 07:19:12;;;;;;;1.70;1.52;;;;;;;20.92;72.99;99061.91;5114436;28;20052;-78
2021/06/24 07:21:41;;;;;;;2.85;1.90;;;;;;;20.97;72.10;99061.16;5114476;28;20295;-78
2021/06/24 07:24:10;;;;;;;1.73;1.63;;;;;;;21.02;74.21;99075.06;5093747;28;20434;-78
2021/06/24 07:26:40;;;;;;;1.98;1.55;;;;;;;21.47;72.41;99062.03;5093981;28;20067;-78
2021/06/24 07:29:07;;;;;;;3.85;1.58;;;;;;;22.26;72.13;99083.63;5095234;28;20040;-79
2021/06/24 07:31:34;;;;;;;2.75;1.35;;;;;;;22.73;65.78;99061.84;5114318;28;20083;-77
2021/06/24 07:34:04;;;;;;;2.13;1.48;;;;;;;23.30;62.69;99080.44;5114356;28;20054;-78
2021/06/24 07:36:41;;;;;;;;;;;;;;;;;;;;;
2021/06/24 07:39:09;;;;;;;1.63;1.50;;;;;;;22.90;61.69;99081.06;5093553;28;20048;-78
2021/06/24 07:41:38;;;;;;;2.95;1.40;;;;;;;21.67;68.09;99069.78;5106694;28;20422;-79
2021/06/24 07:44:05;;;;;;;1.58;1.23;;;;;;;21.44;69.35;99085.53;5114061;28;20051;-79
2021/06/24 07:46:32;;;;;;;2.22;1.58;;;;;;;21.29;69.32;99085.34;5107180;28;20507;-79
2021/06/24 07:48:59;;;;;;;1.90;1.65;;;;;;;21.43;67.83;99080.25;5093829;28;20407;-79
2021/06/24 07:51:26;;;;;;;2.53;1.70;;;;;;;21.32;70.25;99065.47;5093566;28;20055;-79
2021/06/24 07:53:53;;;;;;;3.15;1.63;;;;;;;21.20;69.75;99065.63;5092939;28;20056;-79
2021/06/24 07:56:21;;;;;;;3.03;1.90;;;;;;;21.03;70.62;99047.16;5093712;28;20055;-79
2021/06/24 07:58:49;;;;;;;1.70;1.60;;;;;;;21.43;69.83;99056.19;5105266;28;20048;-79
2021/06/24 08:01:16;;;;;;;3.70;2.55;;;;;;;21.33;69.57;99064.38;5114143;28;20308;-79
2021/06/24 08:03:42;;;;;;;1.70;1.45;;;;;;;21.24;69.05;99066.75;5107149;28;20052;-80
2021/06/24 08:06:09;;;;;;;4.53;1.70;;;;;;;21.38;70.65;99062.50;5093313;28;20055;-79
2021/06/24 08:08:36;;;;;;;2.00;1.70;;;;;;;21.45;69.69;99070.59;5094237;28;20051;-81
2021/06/24 08:11:04;;;;;;;2.05;1.85;;;;;;;21.47;73.48;99059.28;5113566;28;20043;-79
2021/06/24 08:13:32;;;;;;;2.00;1.80;;;;;;;21.76;70.47;99072.91;5112757;28;20054;-79
2021/06/24 08:15:59;;;;;;;2.05;1.85;;;;;;;21.62;68.98;99061.41;5096010;28;20126;-79
2021/06/24 08:18:26;;;;;;;1.95;1.83;;;;;;;21.73;67.43;99063.19;5093069;28;20056;-80
2021/06/24 08:20:57;;;;;;;2.42;1.75;;;;;;;21.77;68.00;99075.44;5093197;28;20044;-80
2021/06/24 08:23:39;;;;;;;2.80;2.10;;;;;;;21.74;68.34;99085.06;5091914;28;20510;-80
2021/06/24 08:26:06;;;;;;;2.90;2.22;;;;;;;21.69;71.13;99075.88;5101510;28;20456;-80
2021/06/24 08:28:34;;;;;;;1.95;1.65;;;;;;;21.71;69.30;99091.13;5113497;28;20109;-80
2021/06/24 08:31:01;;;;;;;2.15;1.83;;;;;;;21.64;68.94;99089.66;5105511;28;20048;-80
2021/06/24 08:33:28;;;;;;;2.80;2.20;;;;;;;21.96;70.50;99099.97;5092617;28;20507;-80
2021/06/24 08:35:55;;;;;;;2.15;1.90;;;;;;;22.06;65.29;99086.22;5092778;28;20407;-80
2021/06/24 08:38:22;;;;;;;4.72;1.85;;;;;;;22.20;66.01;99098.50;5111360;28;20120;-81
2021/06/24 08:40:48;;;;;;;8.82;1.70;;;;;;;22.21;66.85;99100.19;5112663;28;20100;-81
2021/06/24 08:43:16;;;;;;;2.40;1.67;;;;;;;22.06;65.32;99094.53;5102158;28;20206;-81
2021/06/24 08:45:44;;;;;;;2.28;1.80;;;;;;;22.17;67.51;99092.69;5092543;28;20044;-82
2021/06/24 08:48:15;;;;;;;1.63;1.40;;;;;;;21.85;65.27;99115.63;5096709;28;20043;-81
2021/06/24 08:50:44;;;;;;;1.88;1.77;;;;;;;22.01;68.82;99100.00;5112406;28;20135;-82
2021/06/24 08:53:11;;;;;;;2.95;1.65;;;;;;;22.36;67.27;99118.09;5112598;28;20048;-82
2021/06/24 08:55:41;;;;;;;1.52;1.40;;;;;;;22.19;63.53;99115.38;5095065;28;20044;-82
2021/06/24 08:58:07;;;;;;;;;;;;;;;22.10;61.74;99124.19;5092184;28;20043;-82
2021/06/24 09:00:34;;;;;;;2.30;1.50;;;;;;;22.33;61.88;99122.22;5092461;28;19920;-82
2021/06/24 09:03:21;;;;;;;1.55;1.45;;;;;;;22.07;64.77;99110.00;5092703;28;20044;-82
2021/06/24 09:05:56;;;;;;;3.05;1.73;;;;;;;22.38;63.42;99124.19;5112297;28;20051;-82
2021/06/24 09:08:27;;;;;;;1.60;1.38;;;;;;;22.99;62.92;99129.38;5111568;28;20054;-82
2021/06/24 09:11:15;;;;;;;1.85;1.75;;;;;;;22.31;62.83;99118.00;5072121;28;20048;-82
2021/06/24 09:13:44;;;;;;;1.50;1.40;;;;;;;22.89;67.54;99132.06;5071789;28;20048;-82
2021/06/24 09:16:21;;;;;;;2.97;1.42;;;;;;;23.13;62.09;99111.16;5072305;28;20400;-82
2021/06/24 09:19:20;;;;;;;1.55;1.35;;;;;;;23.35;58.92;99114.88;5071873;28;20049;-82
2021/06/24 09:21:55;;;;;;;1.57;1.43;;;;;;;23.58;57.71;99096.94;5109205;28;20040;-81
2021/06/24 09:24:35;;;;;;;2.95;1.20;;;;;;;23.25;58.19;99104.59;5112348;28;20097;-81
2021/06/24 09:27:05;;;;;;;1.60;1.33;;;;;;;23.42;56.86;99104.38;5093774;28;20044;-80
2021/06/24 09:29:33;;;;;;;1.90;1.30;;;;;;;23.61;56.68;99102.78;5091160;28;20052;-80
2021/06/24 09:32:00;;;;;;;2.33;1.35;;;;;;;23.76;58.05;99095.63;5094865;28;20048;-81
2021/06/24 09:34:28;;;;;;;3.40;1.50;;;;;;;23.66;56.10;99101.97;5111470;28;20130;-81
2021/06/24 09:37:07;;;;;;;4.03;1.70;;;;;;;23.97;56.63;99108.44;5104035;28;20052;-80
2021/06/24 09:39:37;;;;;;;3.50;1.40;;;;;;;23.96;56.77;99106.78;5091789;28;20060;-80
2021/06/24 09:42:07;;;;;;;1.48;1.38;;;;;;;24.42;58.05;99102.38;5098694;28;20547;-80
2021/06/24 09:44:38;;;;;;;1.65;1.40;;;;;;;24.61;56.10;99100.72;5110949;28;20052;-80
2021/06/24 09:47:18;;;;;;;1.52;1.33;;;;;;;24.32;54.27;99104.03;5071994;28;20427;-80
2021/06/24 09:49:56;;;;;;;2.97;1.40;;;;;;;24.22;57.29;99106.81;5091478;28;20098;-79
2021/06/24 09:52:24;;;;;;;1.85;1.48;;;;;;;23.80;57.33;99107.81;5091403;28;20054;-80
2021/06/24 09:55:01;;;;;;;1.50;1.33;;;;;;;23.52;59.53;99112.72;5109208;28;20048;-79
2021/06/24 09:57:27;;;;;;;2.97;1.02;;;;;;;23.31;57.00;99117.38;5111674;28;20478;-80
2021/06/24 09:59:54;;;;;;;4.03;1.80;;;;;;;23.30;56.55;99112.91;5108537;28;20075;-80
2021/06/24 10:02:21;;;;;;;2.03;1.50;;;;;;;23.52;57.52;99123.84;5093928;28;20044;-80
2021/06/24 10:04:53;;;;;;;2.38;1.38;;;;;;;23.13;59.10;99108.38;5102383;28;20054;-80
2021/06/24 10:07:21;;;;;;;1.65;1.55;;;;;;;23.01;58.57;99093.06;5092671;28;20109;-80
2021/06/24 10:09:48;;;;;;;2.97;1.33;;;;;;;23.65;60.13;99106.69;5096431;28;20040;-80
2021/06/24 10:12:17;;;;;;;3.35;1.20;;;;;;;23.62;56.55;99093.34;5111472;28;20578;-80
2021/06/24 10:14:45;;;;;;;1.60;1.30;;;;;;;23.73;54.17;99101.72;5110492;28;20055;-79
2021/06/24 10:17:13;;;;;;;1.40;1.30;;;;;;;23.98;57.34;99100.94;5091391;28;20048;-79
2021/06/24 10:19:41;;;;;;;2.15;1.60;;;;;;;23.74;58.19;99093.13;5091094;28;20061;-80
2021/06/24 10:22:15;;;;;;;1.58;1.35;;;;;;;23.84;59.16;99079.22;5089491;28;20059;-79
2021/06/24 10:24:46;;;;;;;2.78;1.80;;;;;;;24.01;56.00;99075.41;5070769;28;20060;-80
2021/06/24 10:27:14;;;;;;;1.92;1.50;;;;;;;23.94;55.50;99091.53;5097785;28;20054;-80
2021/06/24 10:29:46;;;;;;;3.33;1.65;;;;;;;24.03;55.09;99095.41;5111467;28;20048;-80
2021/06/24 10:32:40;;;;;;;1.33;1.20;;;;;;;24.03;54.79;99074.03;5102057;28;20048;-80
2021/06/24 10:35:22;;;;;;;7.10;1.90;;;;;;;24.51;54.24;99090.44;5076880;28;20059;-79
2021/06/24 10:37:54;;;;;;;1.33;1.23;;;;;;;25.20;52.40;99092.81;5104655;28;20055;-80
2021/06/24 10:40:27;;;;;;;4.10;1.90;;;;;;;25.70;53.69;99077.06;5091613;28;20048;-79
2021/06/24 10:42:59;;;;;;;2.10;1.40;;;;;;;25.80;49.94;99076.16;5099098;28;20050;-79
2021/06/24 10:45:27;;;;;;;3.17;2.00;;;;;;;25.38;52.12;99061.66;5110837;28;20499;-79
2021/06/24 10:47:56;;;;;;;2.35;1.80;;;;;;;25.10;54.07;99071.44;5108761;28;20151;-79
2021/06/24 10:50:57;;;;;;;3.97;1.73;;;;;;;25.85;52.54;99053.88;5094588;28;20479;-80
2021/06/24 10:53:46;;;;;;;3.58;1.83;;;;;;;25.91;51.60;99051.84;5097621;28;20044;-79
2021/06/24 10:56:35;;;;;;;2.78;1.98;;;;;;;26.00;49.42;99046.53;5074436;28;20044;-79
2021/06/24 10:59:04;;;;;;;1.90;1.70;;;;;;;25.65;50.50;99046.44;5095243;28;20096;-79
2021/06/24 11:01:45;;;;;;;2.83;1.33;;;;;;;25.16;54.46;99052.81;5115036;28;20050;-79
2021/06/24 11:04:29;;;;;;;2.47;1.90;;;;;;;24.70;54.28;99034.28;5109934;28;20040;-79
2021/06/24 11:07:00;;;;;;;2.45;1.80;;;;;;;24.73;53.39;99044.84;5094602;28;20062;-80
2021/06/24 11:09:29;;;;;;;1.70;1.60;;;;;;;25.00;54.40;99041.72;5095345;28;20048;-79
2021/06/24 11:11:56;;;;;;;2.03;1.65;;;;;;;25.13;53.74;99042.22;5114660;28;20044;-79
2021/06/24 11:14:54;;;;;;;3.70;1.70;;;;;;;25.10;52.01;99032.50;5114323;28;20051;-79
2021/06/24 11:17:43;;;;;;;1.75;1.48;;;;;;;25.13;52.79;99018.03;5094276;27;20380;-79
2021/06/24 11:20:15;;;;;;;4.35;2.13;;;;;;;25.61;55.64;99031.47;5094339;28;20058;-79
2021/06/24 11:22:53;;;;;;;5.00;1.60;;;;;;;25.57;52.37;99016.44;5094126;28;20411;-78
2021/06/24 11:25:22;;;;;;;3.08;1.20;;;;;;;25.14;48.61;99024.44;5110817;28;20123;-78
2021/06/24 11:27:49;;;;;;;7.68;2.30;;;;;;;25.63;50.67;99039.53;5114403;28;20055;-79
2021/06/24 11:30:17;;;;;;;2.08;1.30;;;;;;;26.30;53.72;99026.81;5101512;28;20475;-79
2021/06/24 11:32:49;;;;;;;4.15;1.40;;;;;;;26.36;47.62;99022.00;5093760;28;20127;-78
2021/06/24 11:35:32;;;;;;;1.30;1.08;;;;;;;26.42;48.57;99022.78;5097964;28;20093;-79
2021/06/24 11:38:02;;;;;;;5.35;1.20;;;;;;;25.58;49.07;99018.94;5114163;28;20057;-79
2021/06/24 11:40:32;;;;;;;2.95;1.08;;;;;;;26.12;49.12;99030.28;5109655;28;20056;-79
2021/06/24 11:43:07;;;;;;;3.92;1.50;;;;;;;25.89;50.84;99010.38;5093051;28;20129;-79
2021/06/24 11:45:34;;;;;;;1.58;1.27;;;;;;;25.52;47.88;99016.47;5093671;28;20059;-79